sensor_id;sensor_type;location;lat;lon;timestamp;P1;durP1;ratioP1;P2;durP2;ratioP2
69714;SDS011;56981;53.532;49.398;2023-10-13T00:02:11;1.38;;;0.90;;
69714;SDS011;56981;53.532;49.398;2023-10-13T00:04:39;4.97;;;1.20;;
69714;SDS011;56981;53.532;49.398;2023-10-13T00:07:07;1.48;;;1.13;;
69714;SDS011;56981;53.532;49.398;2023-10-13T00:09:34;1.55;;;0.98;;
69714;SDS011;56981;53.532;49.398;2023-10-13T00:12:04;3.30;;;1.33;;
69714;SDS011;56981;53.532;49.398;2023-10-13T00:14:49;1.27;;;1.17;;
69714;SDS011;56981;53.532;49.398;2023-10-13T00:17:16;2.10;;;1.35;;
69714;SDS011;56981;53.532;49.398;2023-10-13T00:19:45;1.95;;;1.00;;
69714;SDS011;56981;53.532;49.398;2023-10-13T00:22:15;2.00;;;1.13;;
69714;SDS011;56981;53.532;49.398;2023-10-13T00:24:42;2.22;;;1.13;;
69714;SDS011;56981;53.532;49.398;2023-10-13T00:27:20;2.30;;;1.27;;
69714;SDS011;56981;53.532;49.398;2023-10-13T00:30:07;1.92;;;1.20;;
69714;SDS011;56981;53.532;49.398;2023-10-13T00:32:58;1.20;;;1.10;;
69714;SDS011;56981;53.532;49.398;2023-10-13T00:35:25;3.45;;;1.33;;
69714;SDS011;56981;53.532;49.398;2023-10-13T00:38:12;1.33;;;1.15;;
69714;SDS011;56981;53.532;49.398;2023-10-13T00:40:39;2.17;;;1.23;;
69714;SDS011;56981;53.532;49.398;2023-10-13T00:43:05;2.20;;;1.20;;
69714;SDS011;56981;53.532;49.398;2023-10-13T00:45:47;1.98;;;1.38;;
69714;SDS011;56981;53.532;49.398;2023-10-13T00:48:21;2.63;;;1.40;;
69714;SDS011;56981;53.532;49.398;2023-10-13T00:50:55;2.28;;;1.10;;
69714;SDS011;56981;53.532;49.398;2023-10-13T00:53:23;1.80;;;1.30;;
69714;SDS011;56981;53.532;49.398;2023-10-13T00:55:51;4.38;;;1.40;;
69714;SDS011;56981;53.532;49.398;2023-10-13T00:58:21;2.40;;;1.90;;
69714;SDS011;56981;53.532;49.398;2023-10-13T01:00:49;3.65;;;1.55;;
69714;SDS011;56981;53.532;49.398;2023-10-13T01:03:25;3.38;;;1.60;;
69714;SDS011;56981;53.532;49.398;2023-10-13T01:05:55;3.30;;;1.75;;
69714;SDS011;56981;53.532;49.398;2023-10-13T01:08:33;3.55;;;0.98;;
69714;SDS011;56981;53.532;49.398;2023-10-13T01:11:04;1.88;;;1.50;;
69714;SDS011;56981;53.532;49.398;2023-10-13T01:13:33;3.03;;;1.38;;
69714;SDS011;56981;53.532;49.398;2023-10-13T01:16:02;2.05;;;1.27;;
69714;SDS011;56981;53.532;49.398;2023-10-13T01:18:29;3.15;;;1.40;;
69714;SDS011;56981;53.532;49.398;2023-10-13T01:20:55;1.90;;;1.60;;
69714;SDS011;56981;53.532;49.398;2023-10-13T01:23:27;2.05;;;1.65;;
69714;SDS011;56981;53.532;49.398;2023-10-13T01:25:54;4.13;;;1.73;;
69714;SDS011;56981;53.532;49.398;2023-10-13T01:28:23;5.13;;;1.52;;
69714;SDS011;56981;53.532;49.398;2023-10-13T01:30:49;5.15;;;1.50;;
69714;SDS011;56981;53.532;49.398;2023-10-13T01:33:16;1.60;;;1.50;;
69714;SDS011;56981;53.532;49.398;2023-10-13T01:35:43;2.38;;;1.55;;
69714;SDS011;56981;53.532;49.398;2023-10-13T01:38:15;2.05;;;1.10;;
69714;SDS011;56981;53.532;49.398;2023-10-13T01:40:41;3.38;;;1.45;;
69714;SDS011;56981;53.532;49.398;2023-10-13T01:43:08;1.60;;;1.40;;
69714;SDS011;56981;53.532;49.398;2023-10-13T01:45:37;5.03;;;1.40;;
69714;SDS011;56981;53.532;49.398;2023-10-13T01:48:17;2.78;;;1.45;;
69714;SDS011;56981;53.532;49.398;2023-10-13T01:50:46;2.10;;;1.67;;
69714;SDS011;56981;53.532;49.398;2023-10-13T01:53:27;1.88;;;1.40;;
69714;SDS011;56981;53.532;49.398;2023-10-13T01:55:54;2.53;;;1.63;;
69714;SDS011;56981;53.532;49.398;2023-10-13T01:58:22;1.80;;;1.10;;
69714;SDS011;56981;53.532;49.398;2023-10-13T02:00:51;4.47;;;2.13;;
69714;SDS011;56981;53.532;49.398;2023-10-13T02:03:17;2.80;;;1.45;;
69714;SDS011;56981;53.532;49.398;2023-10-13T02:05:47;2.58;;;1.30;;
69714;SDS011;56981;53.532;49.398;2023-10-13T02:08:18;4.05;;;1.77;;
69714;SDS011;56981;53.532;49.398;2023-10-13T02:10:51;2.22;;;1.50;;
69714;SDS011;56981;53.532;49.398;2023-10-13T02:13:21;1.95;;;1.40;;
69714;SDS011;56981;53.532;49.398;2023-10-13T02:15:48;2.28;;;1.65;;
69714;SDS011;56981;53.532;49.398;2023-10-13T02:18:18;3.35;;;1.70;;
69714;SDS011;56981;53.532;49.398;2023-10-13T02:21:02;1.70;;;1.10;;
69714;SDS011;56981;53.532;49.398;2023-10-13T02:23:38;2.83;;;1.27;;
69714;SDS011;56981;53.532;49.398;2023-10-13T02:26:09;2.05;;;1.30;;
69714;SDS011;56981;53.532;49.398;2023-10-13T02:28:56;4.05;;;1.27;;
69714;SDS011;56981;53.532;49.398;2023-10-13T02:31:44;2.22;;;1.40;;
69714;SDS011;56981;53.532;49.398;2023-10-13T02:34:20;3.88;;;2.15;;
69714;SDS011;56981;53.532;49.398;2023-10-13T02:36:48;3.20;;;1.60;;
69714;SDS011;56981;53.532;49.398;2023-10-13T02:39:15;2.92;;;1.35;;
69714;SDS011;56981;53.532;49.398;2023-10-13T02:41:41;1.70;;;1.35;;
69714;SDS011;56981;53.532;49.398;2023-10-13T02:44:13;2.35;;;1.13;;
69714;SDS011;56981;53.532;49.398;2023-10-13T02:47:06;2.40;;;1.23;;
69714;SDS011;56981;53.532;49.398;2023-10-13T02:49:39;3.35;;;1.48;;
69714;SDS011;56981;53.532;49.398;2023-10-13T02:52:09;3.10;;;1.70;;
69714;SDS011;56981;53.532;49.398;2023-10-13T02:54:35;4.25;;;1.73;;
69714;SDS011;56981;53.532;49.398;2023-10-13T02:57:19;2.00;;;1.55;;
69714;SDS011;56981;53.532;49.398;2023-10-13T02:59:45;2.42;;;1.17;;
69714;SDS011;56981;53.532;49.398;2023-10-13T03:04:56;2.38;;;1.50;;
69714;SDS011;56981;53.532;49.398;2023-10-13T03:07:26;2.80;;;1.42;;
69714;SDS011;56981;53.532;49.398;2023-10-13T03:09:56;2.05;;;1.85;;
69714;SDS011;56981;53.532;49.398;2023-10-13T03:12:35;2.90;;;1.60;;
69714;SDS011;56981;53.532;49.398;2023-10-13T03:15:02;2.97;;;1.88;;
69714;SDS011;56981;53.532;49.398;2023-10-13T03:17:39;1.95;;;1.50;;
69714;SDS011;56981;53.532;49.398;2023-10-13T03:20:09;2.30;;;2.08;;
69714;SDS011;56981;53.532;49.398;2023-10-13T03:22:40;5.18;;;2.47;;
69714;SDS011;56981;53.532;49.398;2023-10-13T03:25:15;4.18;;;1.95;;
69714;SDS011;56981;53.532;49.398;2023-10-13T03:28:02;1.73;;;1.25;;
69714;SDS011;56981;53.532;49.398;2023-10-13T03:30:33;2.67;;;2.20;;
69714;SDS011;56981;53.532;49.398;2023-10-13T03:33:04;3.10;;;1.88;;
69714;SDS011;56981;53.532;49.398;2023-10-13T03:35:38;3.83;;;2.08;;
69714;SDS011;56981;53.532;49.398;2023-10-13T03:38:11;3.00;;;1.75;;
69714;SDS011;56981;53.532;49.398;2023-10-13T03:40:50;2.95;;;1.80;;
69714;SDS011;56981;53.532;49.398;2023-10-13T03:45:58;3.10;;;1.73;;
69714;SDS011;56981;53.532;49.398;2023-10-13T03:48:33;2.40;;;1.67;;
69714;SDS011;56981;53.532;49.398;2023-10-13T03:51:06;3.97;;;1.95;;
69714;SDS011;56981;53.532;49.398;2023-10-13T03:53:32;3.10;;;2.03;;
69714;SDS011;56981;53.532;49.398;2023-10-13T03:56:05;3.92;;;2.10;;
69714;SDS011;56981;53.532;49.398;2023-10-13T03:58:40;6.25;;;2.05;;
69714;SDS011;56981;53.532;49.398;2023-10-13T04:01:13;2.90;;;1.50;;
69714;SDS011;56981;53.532;49.398;2023-10-13T04:03:42;2.25;;;1.67;;
69714;SDS011;56981;53.532;49.398;2023-10-13T04:06:32;3.25;;;2.25;;
69714;SDS011;56981;53.532;49.398;2023-10-13T04:09:30;2.70;;;1.83;;
69714;SDS011;56981;53.532;49.398;2023-10-13T04:12:02;1.38;;;1.27;;
69714;SDS011;56981;53.532;49.398;2023-10-13T04:17:11;3.20;;;1.50;;
69714;SDS011;56981;53.532;49.398;2023-10-13T04:19:40;3.88;;;2.03;;
69714;SDS011;56981;53.532;49.398;2023-10-13T04:28:05;1.95;;;1.52;;
69714;SDS011;56981;53.532;49.398;2023-10-13T04:30:52;2.10;;;1.88;;
69714;SDS011;56981;53.532;49.398;2023-10-13T04:33:21;3.97;;;1.58;;
69714;SDS011;56981;53.532;49.398;2023-10-13T04:36:13;2.03;;;1.70;;
69714;SDS011;56981;53.532;49.398;2023-10-13T04:38:45;4.35;;;1.92;;
69714;SDS011;56981;53.532;49.398;2023-10-13T04:44:03;2.63;;;1.92;;
69714;SDS011;56981;53.532;49.398;2023-10-13T04:46:48;3.58;;;1.90;;
69714;SDS011;56981;53.532;49.398;2023-10-13T04:49:14;4.78;;;1.95;;
69714;SDS011;56981;53.532;49.398;2023-10-13T04:51:54;5.63;;;2.08;;
69714;SDS011;56981;53.532;49.398;2023-10-13T04:54:30;3.00;;;1.63;;
69714;SDS011;56981;53.532;49.398;2023-10-13T04:57:00;3.25;;;2.20;;
69714;SDS011;56981;53.532;49.398;2023-10-13T04:59:45;3.83;;;2.00;;
69714;SDS011;56981;53.532;49.398;2023-10-13T05:02:35;3.72;;;1.52;;
69714;SDS011;56981;53.532;49.398;2023-10-13T05:07:45;2.22;;;1.40;;
69714;SDS011;56981;53.532;49.398;2023-10-13T05:10:30;2.70;;;1.80;;
69714;SDS011;56981;53.532;49.398;2023-10-13T05:13:15;3.15;;;1.80;;
69714;SDS011;56981;53.532;49.398;2023-10-13T05:16:00;2.38;;;1.75;;
69714;SDS011;56981;53.532;49.398;2023-10-13T05:18:44;1.98;;;1.70;;
69714;SDS011;56981;53.532;49.398;2023-10-13T05:21:32;3.03;;;1.70;;
69714;SDS011;56981;53.532;49.398;2023-10-13T05:24:16;4.32;;;1.83;;
69714;SDS011;56981;53.532;49.398;2023-10-13T05:27:00;2.33;;;1.92;;
69714;SDS011;56981;53.532;49.398;2023-10-13T05:29:46;2.88;;;1.67;;
69714;SDS011;56981;53.532;49.398;2023-10-13T05:32:31;2.85;;;1.88;;
69714;SDS011;56981;53.532;49.398;2023-10-13T05:35:16;2.38;;;2.17;;
69714;SDS011;56981;53.532;49.398;2023-10-13T05:38:04;2.47;;;2.00;;
69714;SDS011;56981;53.532;49.398;2023-10-13T05:40:56;1.50;;;1.25;;
69714;SDS011;56981;53.532;49.398;2023-10-13T05:43:42;2.38;;;1.95;;
69714;SDS011;56981;53.532;49.398;2023-10-13T05:46:27;3.60;;;1.88;;
69714;SDS011;56981;53.532;49.398;2023-10-13T05:48:56;2.75;;;1.70;;
69714;SDS011;56981;53.532;49.398;2023-10-13T05:51:25;3.45;;;2.28;;
69714;SDS011;56981;53.532;49.398;2023-10-13T05:53:57;3.50;;;1.88;;
69714;SDS011;56981;53.532;49.398;2023-10-13T05:56:45;2.78;;;1.67;;
69714;SDS011;56981;53.532;49.398;2023-10-13T05:59:32;2.72;;;2.00;;
69714;SDS011;56981;53.532;49.398;2023-10-13T06:02:17;3.95;;;1.80;;
69714;SDS011;56981;53.532;49.398;2023-10-13T06:05:04;2.10;;;1.92;;
69714;SDS011;56981;53.532;49.398;2023-10-13T06:07:53;2.72;;;1.95;;
69714;SDS011;56981;53.532;49.398;2023-10-13T06:10:38;3.67;;;1.50;;
69714;SDS011;56981;53.532;49.398;2023-10-13T06:13:23;3.65;;;2.25;;
69714;SDS011;56981;53.532;49.398;2023-10-13T06:16:08;2.95;;;1.70;;
69714;SDS011;56981;53.532;49.398;2023-10-13T06:18:54;4.40;;;2.03;;
69714;SDS011;56981;53.532;49.398;2023-10-13T06:21:38;2.50;;;1.77;;
69714;SDS011;56981;53.532;49.398;2023-10-13T06:24:23;2.47;;;1.73;;
69714;SDS011;56981;53.532;49.398;2023-10-13T06:27:08;2.78;;;2.17;;
69714;SDS011;56981;53.532;49.398;2023-10-13T06:29:52;2.10;;;1.50;;
69714;SDS011;56981;53.532;49.398;2023-10-13T06:32:21;2.72;;;1.73;;
69714;SDS011;56981;53.532;49.398;2023-10-13T06:34:54;4.13;;;1.85;;
69714;SDS011;56981;53.532;49.398;2023-10-13T06:37:24;2.20;;;1.75;;
69714;SDS011;56981;53.532;49.398;2023-10-13T06:40:03;3.72;;;2.03;;
69714;SDS011;56981;53.532;49.398;2023-10-13T06:42:53;2.60;;;1.70;;
69714;SDS011;56981;53.532;49.398;2023-10-13T06:45:40;3.78;;;2.10;;
69714;SDS011;56981;53.532;49.398;2023-10-13T06:48:07;3.45;;;1.60;;
69714;SDS011;56981;53.532;49.398;2023-10-13T06:50:37;5.47;;;3.42;;
69714;SDS011;56981;53.532;49.398;2023-10-13T06:53:11;2.45;;;1.92;;
69714;SDS011;56981;53.532;49.398;2023-10-13T06:55:38;4.05;;;1.80;;
69714;SDS011;56981;53.532;49.398;2023-10-13T06:58:08;5.95;;;2.00;;
69714;SDS011;56981;53.532;49.398;2023-10-13T07:00:39;2.80;;;1.85;;
69714;SDS011;56981;53.532;49.398;2023-10-13T07:03:06;2.85;;;1.90;;
69714;SDS011;56981;53.532;49.398;2023-10-13T07:05:38;3.33;;;1.95;;
69714;SDS011;56981;53.532;49.398;2023-10-13T07:08:05;3.00;;;2.05;;
69714;SDS011;56981;53.532;49.398;2023-10-13T07:10:31;3.08;;;1.80;;
69714;SDS011;56981;53.532;49.398;2023-10-13T07:13:10;3.72;;;2.00;;
69714;SDS011;56981;53.532;49.398;2023-10-13T07:15:39;2.92;;;1.92;;
69714;SDS011;56981;53.532;49.398;2023-10-13T07:18:13;3.42;;;1.70;;
69714;SDS011;56981;53.532;49.398;2023-10-13T07:20:44;4.40;;;1.83;;
69714;SDS011;56981;53.532;49.398;2023-10-13T07:23:11;4.53;;;2.33;;
69714;SDS011;56981;53.532;49.398;2023-10-13T07:25:52;2.72;;;1.88;;
69714;SDS011;56981;53.532;49.398;2023-10-13T07:28:21;3.25;;;2.13;;
69714;SDS011;56981;53.532;49.398;2023-10-13T07:30:47;2.80;;;2.13;;
69714;SDS011;56981;53.532;49.398;2023-10-13T07:33:19;4.15;;;1.90;;
69714;SDS011;56981;53.532;49.398;2023-10-13T07:35:46;3.45;;;2.20;;
69714;SDS011;56981;53.532;49.398;2023-10-13T07:38:16;3.97;;;2.25;;
69714;SDS011;56981;53.532;49.398;2023-10-13T07:40:43;2.47;;;1.85;;
69714;SDS011;56981;53.532;49.398;2023-10-13T07:43:18;4.68;;;2.67;;
69714;SDS011;56981;53.532;49.398;2023-10-13T07:45:47;4.85;;;2.42;;
69714;SDS011;56981;53.532;49.398;2023-10-13T07:48:18;3.50;;;2.17;;
69714;SDS011;56981;53.532;49.398;2023-10-13T07:51:00;3.55;;;1.73;;
69714;SDS011;56981;53.532;49.398;2023-10-13T07:53:29;3.42;;;2.00;;
69714;SDS011;56981;53.532;49.398;2023-10-13T07:56:01;3.83;;;1.92;;
69714;SDS011;56981;53.532;49.398;2023-10-13T07:58:53;3.92;;;2.03;;
69714;SDS011;56981;53.532;49.398;2023-10-13T08:01:26;1.98;;;1.58;;
69714;SDS011;56981;53.532;49.398;2023-10-13T08:03:52;2.00;;;1.35;;
69714;SDS011;56981;53.532;49.398;2023-10-13T08:06:37;3.40;;;2.10;;
69714;SDS011;56981;53.532;49.398;2023-10-13T08:09:06;3.15;;;1.85;;
69714;SDS011;56981;53.532;49.398;2023-10-13T08:11:52;2.72;;;2.40;;
69714;SDS011;56981;53.532;49.398;2023-10-13T08:14:19;4.10;;;2.42;;
69714;SDS011;56981;53.532;49.398;2023-10-13T08:16:49;3.33;;;1.90;;
69714;SDS011;56981;53.532;49.398;2023-10-13T08:19:22;4.55;;;1.90;;
69714;SDS011;56981;53.532;49.398;2023-10-13T08:22:05;4.38;;;2.70;;
69714;SDS011;56981;53.532;49.398;2023-10-13T08:24:44;3.03;;;2.20;;
69714;SDS011;56981;53.532;49.398;2023-10-13T08:27:12;4.28;;;1.85;;
69714;SDS011;56981;53.532;49.398;2023-10-13T08:29:57;3.30;;;1.92;;
69714;SDS011;56981;53.532;49.398;2023-10-13T08:32:23;3.63;;;2.22;;
69714;SDS011;56981;53.532;49.398;2023-10-13T08:34:58;5.30;;;2.20;;
69714;SDS011;56981;53.532;49.398;2023-10-13T08:37:34;5.05;;;2.47;;
69714;SDS011;56981;53.532;49.398;2023-10-13T08:40:23;2.15;;;1.77;;
69714;SDS011;56981;53.532;49.398;2023-10-13T08:43:10;5.07;;;1.98;;
69714;SDS011;56981;53.532;49.398;2023-10-13T08:45:38;4.00;;;2.67;;
69714;SDS011;56981;53.532;49.398;2023-10-13T08:48:05;5.03;;;2.30;;
69714;SDS011;56981;53.532;49.398;2023-10-13T08:50:48;3.80;;;2.55;;
69714;SDS011;56981;53.532;49.398;2023-10-13T08:56:01;4.05;;;2.10;;
69714;SDS011;56981;53.532;49.398;2023-10-13T08:58:34;4.97;;;2.08;;
69714;SDS011;56981;53.532;49.398;2023-10-13T09:01:19;3.72;;;2.08;;
69714;SDS011;56981;53.532;49.398;2023-10-13T09:04:06;2.63;;;2.33;;
69714;SDS011;56981;53.532;49.398;2023-10-13T09:06:52;6.30;;;2.58;;
69714;SDS011;56981;53.532;49.398;2023-10-13T09:09:44;4.03;;;2.38;;
69714;SDS011;56981;53.532;49.398;2023-10-13T09:12:12;2.50;;;2.30;;
69714;SDS011;56981;53.532;49.398;2023-10-13T09:14:40;4.97;;;2.50;;
69714;SDS011;56981;53.532;49.398;2023-10-13T09:17:12;2.53;;;1.45;;
69714;SDS011;56981;53.532;49.398;2023-10-13T09:22:25;3.90;;;2.28;;
69714;SDS011;56981;53.532;49.398;2023-10-13T09:25:01;5.97;;;2.78;;
69714;SDS011;56981;53.532;49.398;2023-10-13T09:27:31;3.80;;;2.40;;
69714;SDS011;56981;53.532;49.398;2023-10-13T09:29:59;4.35;;;2.45;;
69714;SDS011;56981;53.532;49.398;2023-10-13T09:32:44;4.00;;;1.90;;
69714;SDS011;56981;53.532;49.398;2023-10-13T09:35:19;2.75;;;1.98;;
69714;SDS011;56981;53.532;49.398;2023-10-13T09:37:49;4.70;;;2.55;;
69714;SDS011;56981;53.532;49.398;2023-10-13T09:40:17;4.00;;;2.90;;
69714;SDS011;56981;53.532;49.398;2023-10-13T09:42:58;3.97;;;2.72;;
69714;SDS011;56981;53.532;49.398;2023-10-13T09:45:31;4.63;;;2.50;;
69714;SDS011;56981;53.532;49.398;2023-10-13T09:48:18;4.80;;;2.70;;
69714;SDS011;56981;53.532;49.398;2023-10-13T09:50:51;5.40;;;3.03;;
69714;SDS011;56981;53.532;49.398;2023-10-13T09:53:22;5.78;;;2.30;;
69714;SDS011;56981;53.532;49.398;2023-10-13T09:59:06;6.07;;;2.72;;
69714;SDS011;56981;53.532;49.398;2023-10-13T10:01:42;4.00;;;2.38;;
69714;SDS011;56981;53.532;49.398;2023-10-13T10:04:17;4.57;;;2.42;;
69714;SDS011;56981;53.532;49.398;2023-10-13T10:06:54;2.42;;;1.58;;
69714;SDS011;56981;53.532;49.398;2023-10-13T10:09:28;3.35;;;2.25;;
69714;SDS011;56981;53.532;49.398;2023-10-13T10:14:56;4.00;;;2.45;;
69714;SDS011;56981;53.532;49.398;2023-10-13T10:17:45;12.57;;;6.88;;
69714;SDS011;56981;53.532;49.398;2023-10-13T10:20:13;3.70;;;2.88;;
69714;SDS011;56981;53.532;49.398;2023-10-13T10:22:58;3.22;;;2.30;;
69714;SDS011;56981;53.532;49.398;2023-10-13T10:25:28;6.13;;;2.90;;
69714;SDS011;56981;53.532;49.398;2023-10-13T10:28:02;4.28;;;3.00;;
69714;SDS011;56981;53.532;49.398;2023-10-13T10:33:09;6.15;;;2.95;;
69714;SDS011;56981;53.532;49.398;2023-10-13T10:35:44;5.68;;;2.78;;
69714;SDS011;56981;53.532;49.398;2023-10-13T10:38:24;4.75;;;2.25;;
69714;SDS011;56981;53.532;49.398;2023-10-13T10:41:01;2.45;;;2.25;;
69714;SDS011;56981;53.532;49.398;2023-10-13T10:46:14;4.05;;;2.63;;
69714;SDS011;56981;53.532;49.398;2023-10-13T10:48:46;5.50;;;2.70;;
69714;SDS011;56981;53.532;49.398;2023-10-13T10:51:14;5.55;;;2.85;;
69714;SDS011;56981;53.532;49.398;2023-10-13T10:53:46;5.68;;;3.25;;
69714;SDS011;56981;53.532;49.398;2023-10-13T10:56:15;4.65;;;2.88;;
69714;SDS011;56981;53.532;49.398;2023-10-13T10:58:46;4.70;;;2.63;;
69714;SDS011;56981;53.532;49.398;2023-10-13T11:01:29;6.70;;;3.40;;
69714;SDS011;56981;53.532;49.398;2023-10-13T11:04:13;5.95;;;3.22;;
69714;SDS011;56981;53.532;49.398;2023-10-13T11:06:50;4.45;;;2.67;;
69714;SDS011;56981;53.532;49.398;2023-10-13T11:09:27;6.18;;;2.83;;
69714;SDS011;56981;53.532;49.398;2023-10-13T11:14:42;5.75;;;3.00;;
69714;SDS011;56981;53.532;49.398;2023-10-13T11:17:18;2.90;;;2.42;;
69714;SDS011;56981;53.532;49.398;2023-10-13T11:22:17;3.08;;;2.70;;
69714;SDS011;56981;53.532;49.398;2023-10-13T11:25:07;5.60;;;2.90;;
69714;SDS011;56981;53.532;49.398;2023-10-13T11:27:42;3.60;;;2.55;;
69714;SDS011;56981;53.532;49.398;2023-10-13T11:30:11;6.00;;;3.15;;
69714;SDS011;56981;53.532;49.398;2023-10-13T11:33:00;5.60;;;3.00;;
69714;SDS011;56981;53.532;49.398;2023-10-13T11:35:31;4.47;;;2.88;;
69714;SDS011;56981;53.532;49.398;2023-10-13T11:38:28;5.30;;;3.08;;
69714;SDS011;56981;53.532;49.398;2023-10-13T11:43:49;10.80;;;5.72;;
69714;SDS011;56981;53.532;49.398;2023-10-13T11:46:17;5.93;;;3.22;;
69714;SDS011;56981;53.532;49.398;2023-10-13T11:49:02;4.43;;;2.33;;
69714;SDS011;56981;53.532;49.398;2023-10-13T11:51:41;6.45;;;3.13;;
69714;SDS011;56981;53.532;49.398;2023-10-13T11:54:11;7.93;;;3.45;;
69714;SDS011;56981;53.532;49.398;2023-10-13T11:56:44;6.28;;;3.60;;
69714;SDS011;56981;53.532;49.398;2023-10-13T11:59:11;5.90;;;3.28;;
69714;SDS011;56981;53.532;49.398;2023-10-13T12:01:47;6.03;;;3.00;;
69714;SDS011;56981;53.532;49.398;2023-10-13T12:04:33;5.57;;;3.45;;
69714;SDS011;56981;53.532;49.398;2023-10-13T12:07:20;6.55;;;3.85;;
69714;SDS011;56981;53.532;49.398;2023-10-13T12:09:52;4.28;;;3.00;;
69714;SDS011;56981;53.532;49.398;2023-10-13T12:12:28;15.18;;;6.80;;
69714;SDS011;56981;53.532;49.398;2023-10-13T12:14:56;5.05;;;3.30;;
69714;SDS011;56981;53.532;49.398;2023-10-13T12:17:26;5.90;;;3.88;;
69714;SDS011;56981;53.532;49.398;2023-10-13T12:22:25;6.47;;;3.40;;
69714;SDS011;56981;53.532;49.398;2023-10-13T12:25:04;5.93;;;3.20;;
69714;SDS011;56981;53.532;49.398;2023-10-13T12:27:45;4.45;;;2.85;;
69714;SDS011;56981;53.532;49.398;2023-10-13T12:30:14;6.03;;;2.75;;
69714;SDS011;56981;53.532;49.398;2023-10-13T12:32:50;6.30;;;3.33;;
69714;SDS011;56981;53.532;49.398;2023-10-13T12:35:34;6.95;;;3.67;;
69714;SDS011;56981;53.532;49.398;2023-10-13T12:38:10;7.00;;;3.85;;
69714;SDS011;56981;53.532;49.398;2023-10-13T12:41:04;7.03;;;3.70;;
69714;SDS011;56981;53.532;49.398;2023-10-13T12:43:49;9.27;;;4.32;;
69714;SDS011;56981;53.532;49.398;2023-10-13T12:46:33;7.70;;;4.18;;
69714;SDS011;56981;53.532;49.398;2023-10-13T12:49:17;7.75;;;3.70;;
69714;SDS011;56981;53.532;49.398;2023-10-13T12:52:02;5.75;;;4.25;;
69714;SDS011;56981;53.532;49.398;2023-10-13T12:54:28;7.47;;;4.13;;
69714;SDS011;56981;53.532;49.398;2023-10-13T12:57:01;7.18;;;3.97;;
69714;SDS011;56981;53.532;49.398;2023-10-13T12:59:28;9.50;;;5.30;;
69714;SDS011;56981;53.532;49.398;2023-10-13T13:01:54;9.45;;;5.45;;
69714;SDS011;56981;53.532;49.398;2023-10-13T13:04:20;9.25;;;5.82;;
69714;SDS011;56981;53.532;49.398;2023-10-13T13:06:47;5.05;;;4.22;;
69714;SDS011;56981;53.532;49.398;2023-10-13T13:09:14;5.97;;;4.38;;
69714;SDS011;56981;53.532;49.398;2023-10-13T13:11:40;8.68;;;4.18;;
69714;SDS011;56981;53.532;49.398;2023-10-13T13:14:09;5.43;;;4.05;;
69714;SDS011;56981;53.532;49.398;2023-10-13T13:16:35;8.52;;;4.45;;
69714;SDS011;56981;53.532;49.398;2023-10-13T13:19:04;10.07;;;4.82;;
69714;SDS011;56981;53.532;49.398;2023-10-13T13:21:39;7.20;;;4.22;;
69714;SDS011;56981;53.532;49.398;2023-10-13T13:24:05;7.45;;;4.82;;
69714;SDS011;56981;53.532;49.398;2023-10-13T13:26:40;5.55;;;3.90;;
69714;SDS011;56981;53.532;49.398;2023-10-13T13:29:06;9.75;;;4.57;;
69714;SDS011;56981;53.532;49.398;2023-10-13T13:31:35;7.95;;;4.25;;
69714;SDS011;56981;53.532;49.398;2023-10-13T13:34:07;7.47;;;4.38;;
69714;SDS011;56981;53.532;49.398;2023-10-13T13:36:38;6.78;;;4.70;;
69714;SDS011;56981;53.532;49.398;2023-10-13T13:39:12;7.70;;;4.25;;
69714;SDS011;56981;53.532;49.398;2023-10-13T13:41:43;7.82;;;4.47;;
69714;SDS011;56981;53.532;49.398;2023-10-13T13:44:09;4.45;;;3.65;;
69714;SDS011;56981;53.532;49.398;2023-10-13T13:46:41;8.18;;;4.97;;
69714;SDS011;56981;53.532;49.398;2023-10-13T13:49:08;10.13;;;5.30;;
69714;SDS011;56981;53.532;49.398;2023-10-13T13:51:44;8.50;;;5.03;;
69714;SDS011;56981;53.532;49.398;2023-10-13T13:54:17;6.22;;;4.10;;
69714;SDS011;56981;53.532;49.398;2023-10-13T13:56:44;10.30;;;4.93;;
69714;SDS011;56981;53.532;49.398;2023-10-13T13:59:10;7.63;;;4.05;;
69714;SDS011;56981;53.532;49.398;2023-10-13T14:01:41;7.80;;;4.43;;
69714;SDS011;56981;53.532;49.398;2023-10-13T14:04:10;6.78;;;5.13;;
69714;SDS011;56981;53.532;49.398;2023-10-13T14:06:36;7.97;;;4.90;;
69714;SDS011;56981;53.532;49.398;2023-10-13T14:09:05;7.63;;;4.28;;
69714;SDS011;56981;53.532;49.398;2023-10-13T14:11:41;7.30;;;4.30;;
69714;SDS011;56981;53.532;49.398;2023-10-13T14:14:23;6.68;;;4.40;;
69714;SDS011;56981;53.532;49.398;2023-10-13T14:16:52;6.65;;;4.68;;
69714;SDS011;56981;53.532;49.398;2023-10-13T14:19:19;8.43;;;5.15;;
69714;SDS011;56981;53.532;49.398;2023-10-13T14:21:56;7.80;;;4.72;;
69714;SDS011;56981;53.532;49.398;2023-10-13T14:24:24;6.97;;;4.95;;
69714;SDS011;56981;53.532;49.398;2023-10-13T14:26:59;9.85;;;5.35;;
69714;SDS011;56981;53.532;49.398;2023-10-13T14:29:42;7.03;;;4.82;;
69714;SDS011;56981;53.532;49.398;2023-10-13T14:32:09;7.60;;;4.93;;
69714;SDS011;56981;53.532;49.398;2023-10-13T14:34:43;9.90;;;5.38;;
69714;SDS011;56981;53.532;49.398;2023-10-13T14:39:41;8.10;;;5.43;;
69714;SDS011;56981;53.532;49.398;2023-10-13T14:42:07;9.45;;;5.57;;
69714;SDS011;56981;53.532;49.398;2023-10-13T14:44:33;10.38;;;4.80;;
69714;SDS011;56981;53.532;49.398;2023-10-13T14:47:00;8.52;;;5.03;;
69714;SDS011;56981;53.532;49.398;2023-10-13T14:49:37;10.52;;;6.07;;
69714;SDS011;56981;53.532;49.398;2023-10-13T14:52:03;7.55;;;4.95;;
69714;SDS011;56981;53.532;49.398;2023-10-13T14:54:29;8.48;;;5.28;;
69714;SDS011;56981;53.532;49.398;2023-10-13T14:57:01;12.95;;;6.28;;
69714;SDS011;56981;53.532;49.398;2023-10-13T14:59:30;12.52;;;6.75;;
69714;SDS011;56981;53.532;49.398;2023-10-13T15:02:04;8.38;;;4.97;;
69714;SDS011;56981;53.532;49.398;2023-10-13T15:04:30;7.28;;;4.63;;
69714;SDS011;56981;53.532;49.398;2023-10-13T15:07:00;10.57;;;5.45;;
69714;SDS011;56981;53.532;49.398;2023-10-13T15:09:29;10.30;;;5.18;;
69714;SDS011;56981;53.532;49.398;2023-10-13T15:11:55;14.27;;;9.88;;
69714;SDS011;56981;53.532;49.398;2023-10-13T15:14:21;10.13;;;5.97;;
69714;SDS011;56981;53.532;49.398;2023-10-13T15:16:48;6.28;;;3.92;;
69714;SDS011;56981;53.532;49.398;2023-10-13T15:19:15;6.20;;;4.70;;
69714;SDS011;56981;53.532;49.398;2023-10-13T15:21:44;8.38;;;5.15;;
69714;SDS011;56981;53.532;49.398;2023-10-13T15:24:15;9.93;;;5.13;;
69714;SDS011;56981;53.532;49.398;2023-10-13T15:26:43;8.80;;;5.18;;
69714;SDS011;56981;53.532;49.398;2023-10-13T15:29:22;6.97;;;4.90;;
69714;SDS011;56981;53.532;49.398;2023-10-13T15:31:52;8.95;;;5.20;;
69714;SDS011;56981;53.532;49.398;2023-10-13T15:34:23;10.40;;;5.25;;
69714;SDS011;56981;53.532;49.398;2023-10-13T15:36:52;10.63;;;5.38;;
69714;SDS011;56981;53.532;49.398;2023-10-13T15:39:21;9.73;;;6.00;;
69714;SDS011;56981;53.532;49.398;2023-10-13T15:41:50;7.95;;;4.88;;
69714;SDS011;56981;53.532;49.398;2023-10-13T15:44:18;7.25;;;5.75;;
69714;SDS011;56981;53.532;49.398;2023-10-13T15:46:46;11.20;;;5.95;;
69714;SDS011;56981;53.532;49.398;2023-10-13T15:49:15;13.02;;;5.65;;
69714;SDS011;56981;53.532;49.398;2023-10-13T15:51:41;10.13;;;6.75;;
69714;SDS011;56981;53.532;49.398;2023-10-13T15:54:07;9.90;;;5.93;;
69714;SDS011;56981;53.532;49.398;2023-10-13T15:56:46;9.68;;;5.60;;
69714;SDS011;56981;53.532;49.398;2023-10-13T15:59:13;10.25;;;5.65;;
69714;SDS011;56981;53.532;49.398;2023-10-13T16:01:40;7.75;;;5.15;;
69714;SDS011;56981;53.532;49.398;2023-10-13T16:04:06;13.50;;;6.47;;